< Typhoon 195210 1952 Season Typhoon 195212 >
Typhoon 195211 (MARY)
General InformationTrack Information on Google Maps || Disaster Info.ResourceGoogle EarthGE AnimationAtom FeedGeoJSON
Detalied Best Track (Time Zone = UTC)
Year Month Day Hour Lat. Long. Pressure (hPa) Wind (kt) Class Image Chart
1952 8 28 00 8.0 137.0 1004 0 2 -- Chart
1952 8 28 06 9.0 136.0 1004 0 2 -- Chart
1952 8 28 12 9.5 135.0 1003 0 2 -- Chart
1952 8 28 18 9.8 133.5 1003 0 2 -- Chart
1952 8 29 00 10.0 132.5 1003 0 2 -- Chart
1952 8 29 06 10.2 131.1 1002 0 2 -- Chart
1952 8 29 12 10.5 130.0 1002 0 2 -- Chart
1952 8 29 18 11.0 129.0 1002 0 2 -- Chart
1952 8 30 00 11.5 128.0 998 0 9 -- Chart
1952 8 30 06 13.0 127.0 998 0 9 -- Chart
1952 8 30 12 14.1 125.6 998 0 9 -- Chart
1952 8 30 18 15.4 124.6 996 0 9 -- Chart
1952 8 31 00 16.5 123.5 992 0 9 -- Chart
1952 8 31 06 18.1 122.6 990 0 9 -- Chart
1952 8 31 12 19.2 122.0 990 0 9 -- Chart
1952 8 31 18 20.5 121.0 990 0 9 -- Chart
1952 9 1 00 21.2 120.5 985 0 9 -- Chart
1952 9 1 06 24.4 119.7 985 0 9 -- Chart
1952 9 1 12 25.8 119.8 990 0 9 -- Chart
1952 9 1 18 27.6 120.3 990 0 9 -- Chart
1952 9 2 00 29.3 121.0 990 0 9 -- Chart
1952 9 2 06 31.1 121.5 990 0 9 -- Chart
1952 9 2 12 33.0 122.5 990 0 9 -- Chart
1952 9 2 18 34.8 123.7 990 0 9 -- Chart
1952 9 3 00 36.3 125.3 990 0 9 -- Chart
1952 9 3 06 37.3 126.5 988 0 9 -- Chart
1952 9 3 12 38.3 130.0 992 0 9 -- Chart
1952 9 3 18 39.6 131.4 992 0 9 -- Chart
1952 9 4 00 40.8 133.4 992 0 9 -- Chart
1952 9 4 06 42.0 136.0 994 0 9 -- Chart
1952 9 4 12 42.9 138.6 996 0 9 -- Chart
1952 9 4 18 43.2 139.4 1000 0 9 -- Chart
1952 9 5 00 43.4 140.2 1004 0 6 -- Chart
Japan Meteorological Agency Best Track Data | Correction Date : 1989-06-01
< Typhoon 195210 1952 Season Typhoon 195212 >

Help